Time;durP1;ratioP1;P1;durP2;ratioP2;P2;SDS_P1;SDS_P2;PMS_P1;PMS_P2;Temp;Humidity;BMP_temperature;BMP_pressure;BME280_temperature;BME280_humidity;BME280_pressure;Samples;Min_cycle;Max_cycle;Signal;HPM_P1;HPM_P2
2023/03/23 00:01:49;;;;;;;;;;;12.60;99.90;;;;;;4920791;29;20384;-83
2023/03/23 00:04:16;;;;;;;;;;;12.60;99.90;;;;;;4932576;29;19933;-83
2023/03/23 00:06:45;;;;;;;;;;;12.60;99.90;;;;;;4933339;29;19926;-84
2023/03/23 00:09:12;;;;;;;;;;;12.70;99.90;;;;;;4931730;29;20001;-85
2023/03/23 00:11:39;;;;;;;;;;;12.70;99.90;;;;;;4922416;29;20316;-84
2023/03/23 00:14:06;;;;;;;;;;;12.70;99.90;;;;;;4920104;29;19934;-84
2023/03/23 00:16:37;;;;;;;;;;;12.70;99.90;;;;;;4916592;29;20012;-84
2023/03/23 00:19:04;;;;;;;;;;;12.70;99.90;;;;;;4931912;29;19993;-84
2023/03/23 00:21:35;;;;;;;;;;;12.70;99.90;;;;;;4934270;29;19957;-84
2023/03/23 00:24:05;;;;;;;;;;;12.70;99.90;;;;;;4933841;29;20021;-84
2023/03/23 00:26:33;;;;;;;;;;;12.70;99.90;;;;;;4933238;29;19927;-84
2023/03/23 00:29:01;;;;;;;;;;;12.70;99.90;;;;;;4937839;29;20349;-84
2023/03/23 00:31:31;;;;;;;;;;;12.70;99.90;;;;;;4932741;29;19926;-86
2023/03/23 00:33:58;;;;;;;;;;;12.70;99.90;;;;;;4933163;29;19922;-85
2023/03/23 00:36:26;;;;;;;;;;;12.70;99.90;;;;;;4917345;29;20425;-82
2023/03/23 00:38:52;;;;;;;;;;;12.70;99.90;;;;;;4927141;29;19926;-85
2023/03/23 00:41:21;;;;;;;;;;;12.70;99.90;;;;;;4945626;29;19922;-85
2023/03/23 00:43:55;;;;;;;;;;;12.70;99.90;;;;;;4945046;29;19981;-85
2023/03/23 00:46:22;;;;;;;;;;;12.70;99.90;;;;;;4941794;29;19911;-87
2023/03/23 00:48:50;;;;;;;;;;;12.70;99.90;;;;;;4936516;29;19927;-86
2023/03/23 00:51:17;;;;;;;;;;;12.70;99.90;;;;;;4954769;28;19955;-86
2023/03/23 00:53:44;;;;;;;;;;;12.70;99.90;;;;;;4918641;29;19930;-85
2023/03/23 00:56:11;;;;;;;;;;;12.70;99.90;;;;;;4938896;29;19926;-85
2023/03/23 00:58:40;;;;;;;;;;;12.70;99.90;;;;;;4945561;29;19933;-85
2023/03/23 01:01:07;;;;;;;;;;;12.70;99.90;;;;;;4925225;29;20014;-86
2023/03/23 01:03:34;;;;;;;;;;;12.70;99.90;;;;;;4927196;29;19922;-84
2023/03/23 01:06:04;;;;;;;;;;;12.70;99.90;;;;;;4930061;29;19927;-85
2023/03/23 01:08:32;;;;;;;;;;;12.70;99.90;;;;;;4928733;29;19926;-85
2023/03/23 01:11:03;;;;;;;;;;;12.80;99.90;;;;;;4915762;29;19934;-86
2023/03/23 01:13:30;;;;;;;;;;;12.80;99.90;;;;;;4917509;29;19923;-84
2023/03/23 01:15:58;;;;;;;;;;;12.80;99.90;;;;;;4934185;29;19923;-84
2023/03/23 01:18:25;;;;;;;;;;;12.80;99.90;;;;;;4917244;29;19922;-84
2023/03/23 01:20:51;;;;;;;;;;;12.80;99.90;;;;;;4930842;28;19929;-87
2023/03/23 01:23:18;;;;;;;;;;;12.80;99.90;;;;;;4942112;28;19911;-86
2023/03/23 01:25:45;;;;;;;;;;;12.80;99.90;;;;;;4958009;28;19990;-87
2023/03/23 01:28:12;;;;;;;;;;;12.80;99.90;;;;;;4967810;28;19911;-87
2023/03/23 01:30:38;;;;;;;;;;;12.80;99.90;;;;;;4944674;29;19922;-84
2023/03/23 01:33:07;;;;;;;;;;;12.90;99.90;;;;;;4932302;29;19927;-84
2023/03/23 01:35:33;;;;;;;;;;;12.90;99.90;;;;;;4932046;29;19926;-84
2023/03/23 01:38:00;;;;;;;;;;;12.90;99.90;;;;;;4916715;29;19963;-84
2023/03/23 01:40:27;;;;;;;;;;;12.90;99.90;;;;;;4917160;29;20054;-85
2023/03/23 01:42:55;;;;;;;;;;;12.90;99.90;;;;;;4917407;29;19923;-84
2023/03/23 01:45:24;;;;;;;;;;;12.90;99.90;;;;;;4917272;29;19927;-85
2023/03/23 01:47:53;;;;;;;;;;;12.80;99.90;;;;;;4913491;29;20617;-85
2023/03/23 01:50:23;;;;;;;;;;;12.90;99.90;;;;;;4916095;29;20562;-84
2023/03/23 01:52:52;;;;;;;;;;;12.90;99.90;;;;;;4924745;29;19930;-85
2023/03/23 01:55:19;;;;;;;;;;;12.90;99.90;;;;;;4933033;29;19982;-85
2023/03/23 01:57:46;;;;;;;;;;;12.90;99.90;;;;;;4921995;29;20031;-84
2023/03/23 02:00:15;;;;;;;;;;;12.90;99.90;;;;;;4904833;29;19927;-85
2023/03/23 02:02:48;;;;;;;;;;;12.90;99.90;;;;;;4914839;29;19927;-85
2023/03/23 02:05:25;;;;;;;;;;;12.90;99.90;;;;;;4932693;29;19923;-86
2023/03/23 02:07:54;;;;;;;;;;;13.00;99.90;;;;;;4932556;29;19927;-85
2023/03/23 02:10:21;;;;;;;;;;;12.90;99.90;;;;;;4922955;29;20456;-86
2023/03/23 02:12:48;;;;;;;;;;;12.90;99.90;;;;;;4917187;29;19931;-88
2023/03/23 02:15:14;;;;;;;;;;;12.90;99.90;;;;;;4916817;29;19923;-84
2023/03/23 02:17:47;;;;;;;;;;;12.90;99.90;;;;;;4916292;29;19930;-85
2023/03/23 02:20:19;;;;;;;;;;;12.90;99.90;;;;;;4916227;29;19934;-85
2023/03/23 02:23:10;;;;;;;;;;;12.90;99.90;;;;;;4933685;29;19927;-85
2023/03/23 02:26:03;;;;;;;;;;;12.90;99.90;;;;;;4926102;29;20645;-85
2023/03/23 02:28:51;;;;;;;;;;;12.80;99.90;;;;;;4915367;29;19981;-85
2023/03/23 02:31:30;;;;;;;;;;;12.70;99.90;;;;;;4926031;29;20728;-83
2023/03/23 02:33:59;;;;;;;;;;;12.70;99.90;;;;;;4930926;29;19923;-84
2023/03/23 02:36:29;;;;;;;;;;;12.60;99.90;;;;;;4933324;29;19926;-86
2023/03/23 02:38:58;;;;;;;;;;;12.60;99.90;;;;;;4914609;29;20519;-84
2023/03/23 02:41:28;;;;;;;;;;;12.60;99.90;;;;;;4916601;29;19923;-84
2023/03/23 02:43:56;;;;;;;;;;;12.50;99.90;;;;;;4916173;29;20401;-84
2023/03/23 02:46:23;;;;;;;;;;;12.50;99.90;;;;;;4916743;29;19937;-85
2023/03/23 02:48:51;;;;;;;;;;;12.50;99.90;;;;;;4915559;29;19927;-82
2023/03/23 02:51:21;;;;;;;;;;;12.40;99.90;;;;;;4912959;29;19978;-85
2023/03/23 02:53:49;;;;;;;;;;;12.40;99.90;;;;;;4919358;29;20051;-83
2023/03/23 02:56:16;;;;;;;;;;;12.40;99.90;;;;;;4917542;29;19933;-82
2023/03/23 02:58:43;;;;;;;;;;;12.40;99.90;;;;;;4923317;29;19923;-82
2023/03/23 03:01:37;;;;;;;;;;;12.40;99.90;;;;;;4931572;29;19922;-82
2023/03/23 03:04:06;;;;;;;;;;;12.40;99.90;;;;;;4930307;29;19933;-83
2023/03/23 03:06:36;;;;;;;;;;;12.30;99.90;;;;;;4928965;29;19927;-83
2023/03/23 03:09:06;;;;;;;;;;;12.30;99.90;;;;;;4930949;29;19962;-83
2023/03/23 03:11:35;;;;;;;;;;;12.30;99.90;;;;;;4916261;29;19933;-83
2023/03/23 03:14:06;;;;;;;;;;;12.30;99.90;;;;;;4915869;29;20628;-83
2023/03/23 03:16:38;;;;;;;;;;;12.30;99.90;;;;;;4916081;29;20428;-84
2023/03/23 03:19:07;;;;;;;;;;;12.40;99.90;;;;;;4915212;29;19931;-85
2023/03/23 03:21:38;;;;;;;;;;;12.40;99.90;;;;;;4941224;29;19929;-84
2023/03/23 03:24:10;;;;;;;;;;;12.40;99.90;;;;;;4913818;29;20385;-85
2023/03/23 03:26:38;;;;;;;;;;;12.40;99.90;;;;;;4928236;29;20095;-86
2023/03/23 03:29:27;;;;;;;;;;;12.40;99.90;;;;;;4931059;29;19937;-85
2023/03/23 03:31:56;;;;;;;;;;;12.50;99.90;;;;;;4930405;29;20045;-85
2023/03/23 03:34:24;;;;;;;;;;;12.50;99.90;;;;;;4932782;29;19926;-84
2023/03/23 03:36:55;;;;;;;;;;;12.50;99.90;;;;;;4915427;29;19926;-84
2023/03/23 03:39:22;;;;;;;;;;;12.50;99.90;;;;;;4920811;29;20345;-84
2023/03/23 03:41:51;;;;;;;;;;;12.50;99.90;;;;;;4931994;29;20178;-84
2023/03/23 03:44:18;;;;;;;;;;;12.50;99.90;;;;;;4930388;29;20009;-85
2023/03/23 03:46:45;;;;;;;;;;;12.50;99.90;;;;;;4915319;29;19929;-84
2023/03/23 03:49:12;;;;;;;;;;;12.50;99.90;;;;;;4931965;29;20017;-85
2023/03/23 03:51:41;;;;;;;;;;;12.50;99.90;;;;;;4916055;29;19927;-84
2023/03/23 03:54:13;;;;;;;;;;;12.50;99.90;;;;;;4933037;29;20395;-84
2023/03/23 03:56:41;;;;;;;;;;;12.50;99.90;;;;;;4923887;29;20403;-85
2023/03/23 03:59:25;;;;;;;;;;;12.50;99.90;;;;;;4931415;29;20620;-84
2023/03/23 04:02:16;;;;;;;;;;;12.50;99.90;;;;;;4930184;29;20024;-85
2023/03/23 04:08:11;;;;;;;;;;;12.50;99.90;;;;;;4934951;28;19934;-85
2023/03/23 04:10:43;;;;;;;;;;;12.60;99.90;;;;;;4952842;29;19933;-83
2023/03/23 04:13:12;;;;;;;;;;;12.60;99.90;;;;;;4950005;28;19922;-83
2023/03/23 04:15:57;;;;;;;;;;;12.60;99.90;;;;;;4955506;28;19953;-84
2023/03/23 04:18:24;;;;;;;;;;;12.70;99.90;;;;;;4937637;29;19918;-83
2023/03/23 04:20:53;;;;;;;;;;;12.60;99.90;;;;;;4958869;23;19923;-80
2023/03/23 04:23:22;;;;;;;;;;;13.60;99.90;;;;;;4947045;28;19923;-79
2023/03/23 04:25:51;;;;;;;;;;;12.70;99.90;;;;;;4937420;29;19993;-80
2023/03/23 04:28:23;;;;;;;;;;;12.70;99.90;;;;;;4916916;29;19927;-81
2023/03/23 04:31:12;;;;;;;;;;;12.70;99.90;;;;;;4937667;29;19922;-80
2023/03/23 04:33:41;;;;;;;;;;;12.80;99.90;;;;;;4923246;29;19930;-80
2023/03/23 04:36:08;;;;;;;;;;;12.80;99.90;;;;;;4920367;29;20407;-79
2023/03/23 04:38:41;;;;;;;;;;;12.80;99.90;;;;;;4920867;29;20340;-80
2023/03/23 04:41:15;;;;;;;;;;;12.90;99.90;;;;;;4922115;29;19927;-81
2023/03/23 04:43:56;;;;;;;;;;;12.90;99.90;;;;;;4920561;29;20025;-80
2023/03/23 04:46:49;;;;;;;;;;;12.90;99.90;;;;;;4918001;29;19927;-80
2023/03/23 04:49:20;;;;;;;;;;;12.90;99.90;;;;;;4921537;29;19934;-81
2023/03/23 04:51:50;;;;;;;;;;;12.90;99.90;;;;;;4925630;29;19938;-81
2023/03/23 04:54:24;;;;;;;;;;;12.90;99.90;;;;;;4941447;23;20006;-74
2023/03/23 04:56:55;;;;;;;;;;;12.90;99.90;;;;;;4928630;29;20368;-75
2023/03/23 04:59:27;;;;;;;;;;;12.90;99.90;;;;;;4925116;29;20303;-74
2023/03/23 05:02:07;;;;;;;;;;;13.00;99.90;;;;;;4910217;29;20273;-74
2023/03/23 05:04:34;;;;;;;;;;;13.00;99.90;;;;;;4924657;29;19927;-74
2023/03/23 05:07:30;;;;;;;;;;;13.00;99.90;;;;;;4923138;29;19934;-74
2023/03/23 05:09:57;;;;;;;;;;;12.90;99.90;;;;;;4937511;29;19933;-73
2023/03/23 05:12:29;;;;;;;;;;;12.90;99.90;;;;;;4921424;29;19966;-76
2023/03/23 05:15:03;;;;;;;;;;;12.90;99.90;;;;;;4929979;29;20319;-76
2023/03/23 05:17:32;;;;;;;;;;;12.90;99.90;;;;;;4926181;29;19927;-76
2023/03/23 05:20:00;;;;;;;;;;;12.90;99.90;;;;;;4921047;29;19958;-75
2023/03/23 05:22:38;;;;;;;;;;;12.90;99.90;;;;;;4928961;29;19923;-75
2023/03/23 05:25:08;;;;;;;;;;;12.90;99.90;;;;;;4926760;29;19966;-75
2023/03/23 05:27:37;;;;;;;;;;;12.90;99.90;;;;;;4930035;29;19927;-76
2023/03/23 05:30:16;;;;;;;;;;;13.00;99.90;;;;;;4928062;29;20470;-76
2023/03/23 05:32:44;;;;;;;;;;;12.90;99.90;;;;;;4914367;29;19931;-76
2023/03/23 05:35:27;;;;;;;;;;;13.00;99.90;;;;;;4913107;29;19934;-74
2023/03/23 05:37:55;;;;;;;;;;;13.00;99.90;;;;;;4912717;29;19927;-74
2023/03/23 05:40:23;;;;;;;;;;;13.00;99.90;;;;;;4914472;29;19934;-74
2023/03/23 05:42:58;;;;;;;;;;;12.90;99.90;;;;;;4920162;29;20002;-74
2023/03/23 05:45:39;;;;;;;;;;;12.90;99.90;;;;;;4918124;29;19927;-74
2023/03/23 05:48:06;;;;;;;;;;;12.90;99.90;;;;;;4910788;29;19927;-73
2023/03/23 05:50:34;;;;;;;;;;;13.00;99.90;;;;;;4914215;29;19923;-74
2023/03/23 05:53:04;;;;;;;;;;;13.00;99.90;;;;;;4918129;29;19923;-74
2023/03/23 05:55:33;;;;;;;;;;;12.90;99.90;;;;;;4913826;29;19927;-74
2023/03/23 05:58:10;;;;;;;;;;;13.00;99.90;;;;;;4909883;29;19933;-74
2023/03/23 06:00:40;;;;;;;;;;;13.00;99.90;;;;;;4927973;29;19983;-74
2023/03/23 06:03:17;;;;;;;;;;;13.00;99.90;;;;;;4910996;29;19926;-74
2023/03/23 06:05:52;;;;;;;;;;;13.00;99.90;;;;;;4936584;29;20009;-75
2023/03/23 06:08:20;;;;;;;;;;;13.00;99.90;;;;;;4914513;29;19959;-75
2023/03/23 06:10:48;;;;;;;;;;;13.00;99.90;;;;;;4921505;29;19933;-76
2023/03/23 06:13:16;;;;;;;;;;;13.00;99.90;;;;;;4910569;29;19950;-74
2023/03/23 06:15:48;;;;;;;;;;;13.00;99.90;;;;;;4916965;29;19933;-75
2023/03/23 06:18:23;;;;;;;;;;;13.00;99.90;;;;;;4906349;29;19949;-75
2023/03/23 06:21:12;;;;;;;;;;;13.00;99.90;;;;;;4919621;29;20042;-75
2023/03/23 06:23:53;;;;;;;;;;;13.00;99.90;;;;;;4918676;29;19927;-75
2023/03/23 06:26:23;;;;;;;;;;;13.00;99.90;;;;;;4914476;29;20285;-75
2023/03/23 06:28:57;;;;;;;;;;;13.10;99.90;;;;;;4912933;29;19923;-75
2023/03/23 06:31:25;;;;;;;;;;;13.10;99.90;;;;;;4912023;29;19923;-75
2023/03/23 06:33:52;;;;;;;;;;;13.20;99.90;;;;;;4911524;29;20307;-75
2023/03/23 06:36:26;;;;;;;;;;;13.20;99.90;;;;;;4911795;29;19958;-75
2023/03/23 06:39:22;;;;;;;;;;;13.20;99.90;;;;;;4908676;29;19927;-75
2023/03/23 06:42:00;;;;;;;;;;;14.40;99.90;;;;;;4927206;29;19923;-75
2023/03/23 06:44:32;;;;;;;;;;;13.20;99.90;;;;;;4912822;29;20026;-75
2023/03/23 06:46:58;;;;;;;;;;;13.30;99.90;;;;;;4911342;29;19927;-74
2023/03/23 06:49:29;;;;;;;;;;;13.30;99.90;;;;;;4917688;29;19934;-74
2023/03/23 06:52:06;;;;;;;;;;;13.30;99.90;;;;;;4923996;29;20380;-75
2023/03/23 06:54:32;;;;;;;;;;;13.40;99.90;;;;;;4937923;29;19923;-74
2023/03/23 06:57:01;;;;;;;;;;;13.50;99.90;;;;;;4914517;29;19950;-75
2023/03/23 06:59:29;;;;;;;;;;;13.60;99.90;;;;;;4909887;29;19934;-75
2023/03/23 07:01:57;;;;;;;;;;;13.70;99.90;;;;;;4910931;29;19923;-75
2023/03/23 07:04:24;;;;;;;;;;;13.70;99.90;;;;;;4933935;29;20331;-72
2023/03/23 07:07:02;;;;;;;;;;;13.80;99.90;;;;;;4926848;29;19923;-74
2023/03/23 07:09:33;;;;;;;;;;;13.80;99.90;;;;;;4922721;29;19984;-75
2023/03/23 07:12:00;;;;;;;;;;;13.80;99.90;;;;;;4913645;29;20030;-75
2023/03/23 07:14:35;;;;;;;;;;;13.70;99.90;;;;;;4912690;29;19923;-75
2023/03/23 07:17:05;;;;;;;;;;;13.70;99.90;;;;;;4927165;29;19938;-75
2023/03/23 07:19:35;;;;;;;;;;;13.70;99.90;;;;;;4911902;29;20400;-75
2023/03/23 07:22:02;;;;;;;;;;;13.80;99.90;;;;;;4925284;29;19927;-75
2023/03/23 07:24:28;;;;;;;;;;;13.80;99.90;;;;;;4912766;29;19934;-75
2023/03/23 07:27:21;;;;;;;;;;;13.90;99.90;;;;;;4902348;29;20552;-74
2023/03/23 07:29:53;;;;;;;;;;;13.90;99.90;;;;;;4911858;29;19926;-77
2023/03/23 07:32:25;;;;;;;;;;;13.90;99.90;;;;;;4909537;29;19927;-74
2023/03/23 07:34:53;;;;;;;;;;;13.90;99.90;;;;;;4900615;29;19923;-75
2023/03/23 07:37:35;;;;;;;;;;;13.90;99.90;;;;;;4915007;29;19927;-76
2023/03/23 07:40:11;;;;;;;;;;;13.90;99.90;;;;;;4922695;29;20384;-75
2023/03/23 07:42:38;;;;;;;;;;;13.90;99.90;;;;;;4908866;29;20652;-75
2023/03/23 07:45:08;;;;;;;;;;;13.90;99.90;;;;;;4919759;29;19923;-75
2023/03/23 07:47:37;;;;;;;;;;;13.90;99.90;;;;;;4914618;29;19934;-76
2023/03/23 07:50:05;;;;;;;;;;;14.00;99.90;;;;;;4925990;29;19927;-73
2023/03/23 07:52:37;;;;;;;;;;;14.00;99.90;;;;;;4921384;29;19927;-74
2023/03/23 07:55:06;;;;;;;;;;;14.00;99.90;;;;;;4924214;29;19923;-73
2023/03/23 07:57:40;;;;;;;;;;;14.00;99.90;;;;;;4930583;29;19926;-74
2023/03/23 08:00:11;;;;;;;;;;;14.10;99.90;;;;;;4933698;29;19927;-74
2023/03/23 08:02:43;;;;;;;;;;;14.10;99.90;;;;;;4921847;29;20025;-74
2023/03/23 08:05:32;;;;;;;;;;;14.10;99.90;;;;;;4936389;29;20022;-74
2023/03/23 08:08:27;;;;;;;;;;;14.10;99.90;;;;;;4927089;29;19933;-74
2023/03/23 08:11:15;;;;;;;;;;;14.20;99.90;;;;;;4919052;29;20134;-74
2023/03/23 08:13:54;;;;;;;;;;;14.20;99.90;;;;;;4923330;29;20286;-74
2023/03/23 08:16:40;;;;;;;;;;;14.30;99.90;;;;;;4923908;29;19934;-75
2023/03/23 08:19:28;;;;;;;;;;;14.50;99.90;;;;;;4908757;29;20015;-74
2023/03/23 08:22:20;;;;;;;;;;;14.70;99.90;;;;;;4909577;29;19926;-74
2023/03/23 08:25:07;;;;;;;;;;;14.80;99.90;;;;;;4914387;29;19942;-73
2023/03/23 08:27:52;;;;;;;;;;;14.80;99.90;;;;;;4934113;29;19923;-75
2023/03/23 08:30:33;;;;;;;;;;;15.00;99.90;;;;;;4922246;29;19951;-73
2023/03/23 08:33:21;;;;;;;;;;;15.30;99.90;;;;;;4920788;29;19941;-74
2023/03/23 08:36:10;;;;;;;;;;;15.30;99.90;;;;;;4924557;29;19981;-74
2023/03/23 08:38:55;;;;;;;;;;;15.50;99.90;;;;;;4908637;29;19965;-74
2023/03/23 08:41:34;;;;;;;;;;;15.60;99.90;;;;;;4925322;29;20021;-74
2023/03/23 08:44:12;;;;;;;;;;;15.70;99.90;;;;;;4918189;29;20556;-74
2023/03/23 08:47:09;;;;;;;;;;;15.80;99.90;;;;;;4902768;29;19972;-73
2023/03/23 08:49:53;;;;;;;;;;;15.90;99.90;;;;;;4916117;29;19927;-73
2023/03/23 08:52:41;;;;;;;;;;;16.00;99.90;;;;;;4909654;29;19926;-73
2023/03/23 08:55:26;;;;;;;;;;;16.00;99.90;;;;;;4909862;29;19946;-73
2023/03/23 08:58:13;;;;;;;;;;;15.90;99.90;;;;;;4918980;29;19934;-73
2023/03/23 09:00:45;;;;;;;;;;;15.70;99.90;;;;;;4914011;29;19934;-72
2023/03/23 09:03:45;;;;;;;;;;;15.60;99.90;;;;;;4892787;29;19927;-72
2023/03/23 09:06:30;;;;;;;;;;;15.50;99.90;;;;;;4921253;29;19933;-73
2023/03/23 09:09:00;;;;;;;;;;;15.30;99.90;;;;;;4911995;29;19937;-73
2023/03/23 09:11:27;;;;;;;;;;;15.30;99.90;;;;;;4916717;29;20351;-77
2023/03/23 09:13:53;;;;;;;;;;;15.10;99.90;;;;;;4916309;29;19934;-74
2023/03/23 09:16:20;;;;;;;;;;;15.00;99.90;;;;;;4916675;29;19959;-75
2023/03/23 09:18:47;;;;;;;;;;;14.90;99.90;;;;;;4915759;29;19927;-74
2023/03/23 09:21:13;;;;;;;;;;;14.80;99.90;;;;;;4916660;29;19927;-74
2023/03/23 09:23:43;;;;;;;;;;;14.80;99.90;;;;;;4915490;29;19946;-74
2023/03/23 09:26:11;;;;;;;;;;;14.70;99.90;;;;;;4917301;29;19977;-74
2023/03/23 09:28:38;;;;;;;;;;;14.60;99.90;;;;;;4920243;29;20353;-74
2023/03/23 09:31:05;;;;;;;;;;;14.50;99.90;;;;;;4922573;29;20344;-74
2023/03/23 09:33:33;;;;;;;;;;;14.60;99.90;;;;;;4915368;29;19931;-74
2023/03/23 09:36:00;;;;;;;;;;;14.60;99.90;;;;;;4916316;29;20341;-74
2023/03/23 09:38:27;;;;;;;;;;;14.60;99.90;;;;;;4917067;29;19927;-74
2023/03/23 09:40:56;;;;;;;;;;;14.50;99.90;;;;;;4916275;29;19954;-74
2023/03/23 09:43:35;;;;;;;;;;;14.60;99.90;;;;;;4916220;29;19927;-74
2023/03/23 09:46:08;;;;;;;;;;;14.50;99.90;;;;;;4918135;29;19930;-75
2023/03/23 09:48:38;;;;;;;;;;;14.20;99.90;;;;;;4917665;29;19973;-74
2023/03/23 09:51:09;;;;;;;;;;;13.60;99.90;;;;;;4917030;29;19986;-74
2023/03/23 09:53:38;;;;;;;;;;;13.20;99.90;;;;;;4915604;29;19943;-74
2023/03/23 09:56:09;;;;;;;;;;;12.80;99.90;;;;;;4920957;29;19923;-74
2023/03/23 09:58:42;;;;;;;;;;;12.70;99.90;;;;;;4925921;29;19937;-74
2023/03/23 10:01:11;;;;;;;;;;;12.70;99.90;;;;;;4926028;29;19930;-74
2023/03/23 10:03:39;;;;;;;;;;;12.80;99.90;;;;;;4922466;29;19923;-74
2023/03/23 10:06:08;;;;;;;;;;;12.80;99.90;;;;;;4937043;29;19959;-74
2023/03/23 10:08:35;;;;;;;;;;;12.80;99.90;;;;;;4950671;29;19931;-74
2023/03/23 10:11:03;;;;;;;;;;;12.70;99.90;;;;;;4919436;29;19930;-75
2023/03/23 10:13:35;;;;;;;;;;;12.60;99.90;;;;;;4922871;29;20522;-76
2023/03/23 10:16:05;;;;;;;;;;;12.50;99.90;;;;;;4916502;29;19934;-74
2023/03/23 10:18:34;;;;;;;;;;;12.40;99.90;;;;;;4929349;29;19955;-74
2023/03/23 10:21:02;;;;;;;;;;;12.30;99.90;;;;;;4918415;29;19934;-74
2023/03/23 10:23:36;;;;;;;;;;;12.20;99.90;;;;;;4930714;29;19927;-74
2023/03/23 10:26:07;;;;;;;;;;;12.10;99.90;;;;;;4915918;29;19961;-74
2023/03/23 10:28:36;;;;;;;;;;;12.00;99.90;;;;;;4914224;29;19979;-74
2023/03/23 10:31:06;;;;;;;;;;;12.00;99.90;;;;;;4922838;29;20172;-74
2023/03/23 10:33:35;;;;;;;;;;;11.90;99.90;;;;;;4916737;29;19927;-75
2023/03/23 10:36:04;;;;;;;;;;;11.80;99.90;;;;;;4920099;29;19962;-76
2023/03/23 10:38:33;;;;;;;;;;;11.80;99.90;;;;;;4916077;29;19938;-76
2023/03/23 10:41:02;;;;;;;;;;;11.80;99.90;;;;;;4919817;29;19927;-76
2023/03/23 10:43:29;;;;;;;;;;;11.80;99.90;;;;;;4927907;29;19933;-75
2023/03/23 10:45:57;;;;;;;;;;;11.90;99.90;;;;;;4918434;29;19927;-75
2023/03/23 10:48:30;;;;;;;;;;;11.90;99.90;;;;;;4932776;29;20018;-76
2023/03/23 10:50:59;;;;;;;;;;;12.00;99.90;;;;;;4913968;29;20018;-76
2023/03/23 10:53:30;;;;;;;;;;;11.90;99.90;;;;;;4917007;29;20017;-76
2023/03/23 10:55:58;;;;;;;;;;;11.90;99.90;;;;;;4915971;29;19992;-76
2023/03/23 10:58:28;;;;;;;;;;;12.00;99.90;;;;;;4917025;29;20115;-77
2023/03/23 11:00:55;;;;;;;;;;;12.00;99.90;;;;;;4917968;29;19927;-76
2023/03/23 11:03:25;;;;;;;;;;;12.00;99.90;;;;;;4918358;29;20026;-76
2023/03/23 11:05:54;;;;;;;;;;;12.00;99.90;;;;;;4922843;29;19923;-76
2023/03/23 11:08:21;;;;;;;;;;;12.00;99.90;;;;;;4922609;29;19967;-76
2023/03/23 11:10:50;;;;;;;;;;;12.00;99.90;;;;;;4917687;29;19931;-76
2023/03/23 11:13:19;;;;;;;;;;;12.10;99.90;;;;;;4930736;29;19930;-77
2023/03/23 11:15:46;;;;;;;;;;;12.20;99.90;;;;;;4932269;29;19927;-76
2023/03/23 11:18:14;;;;;;;;;;;12.30;99.90;;;;;;4906559;29;19933;-78
2023/03/23 11:20:42;;;;;;;;;;;12.40;99.90;;;;;;4911499;29;19974;-75
2023/03/23 11:23:29;;;;;;;;;;;12.50;99.90;;;;;;4904417;29;19927;-76
2023/03/23 11:26:02;;;;;;;;;;;12.60;99.90;;;;;;4910312;29;19946;-75
2023/03/23 11:28:31;;;;;;;;;;;12.50;99.90;;;;;;4907488;29;19927;-76
2023/03/23 11:30:59;;;;;;;;;;;12.60;99.90;;;;;;4917705;29;19954;-76
2023/03/23 11:33:26;;;;;;;;;;;12.60;99.90;;;;;;4926424;29;19999;-76
2023/03/23 11:35:54;;;;;;;;;;;12.60;99.90;;;;;;4931020;29;19955;-76
2023/03/23 11:38:23;;;;;;;;;;;12.80;99.90;;;;;;4930538;29;20211;-77
2023/03/23 11:40:52;;;;;;;;;;;13.10;99.90;;;;;;4934180;29;19923;-76
2023/03/23 11:43:21;;;;;;;;;;;13.40;99.90;;;;;;4933943;29;19939;-76
2023/03/23 11:45:49;;;;;;;;;;;13.40;99.90;;;;;;4937426;29;19948;-76
2023/03/23 11:48:19;;;;;;;;;;;13.60;99.90;;;;;;4935162;29;19938;-76
2023/03/23 11:50:50;;;;;;;;;;;13.70;99.90;;;;;;4929018;29;20365;-75
2023/03/23 11:53:21;;;;;;;;;;;13.70;99.90;;;;;;4912557;29;19927;-76
2023/03/23 11:55:57;;;;;;;;;;;13.60;99.90;;;;;;4914357;29;19923;-75
2023/03/23 11:58:32;;;;;;;;;;;13.60;99.90;;;;;;4907695;29;19927;-75
2023/03/23 12:00:59;;;;;;;;;;;13.50;99.90;;;;;;4915694;29;20412;-75
2023/03/23 12:03:33;;;;;;;;;;;13.50;99.90;;;;;;4909938;29;19927;-75
2023/03/23 12:06:03;;;;;;;;;;;13.50;99.90;;;;;;4915919;29;19927;-75
2023/03/23 12:08:36;;;;;;;;;;;13.60;99.90;;;;;;4914838;29;20009;-76
2023/03/23 12:11:09;;;;;;;;;;;13.60;99.90;;;;;;4923190;29;19927;-76
2023/03/23 12:13:52;;;;;;;;;;;13.70;99.90;;;;;;4910952;29;20014;-75
2023/03/23 12:16:23;;;;;;;;;;;13.80;99.90;;;;;;4914780;29;19927;-76
2023/03/23 12:18:54;;;;;;;;;;;14.00;99.90;;;;;;4915351;29;19927;-75
2023/03/23 12:21:24;;;;;;;;;;;14.00;99.90;;;;;;4916889;29;19933;-75
2023/03/23 12:23:56;;;;;;;;;;;14.10;99.90;;;;;;4914317;29;19923;-75
2023/03/23 12:26:26;;;;;;;;;;;14.20;99.90;;;;;;4924984;29;20024;-75
2023/03/23 12:29:20;;;;;;;;;;;14.30;99.90;;;;;;4923275;29;20052;-75
2023/03/23 12:31:54;;;;;;;;;;;14.30;99.90;;;;;;4909908;29;19930;-75
2023/03/23 12:34:37;;;;;;;;;;;14.70;99.90;;;;;;4929646;29;20335;-77
2023/03/23 12:37:13;;;;;;;;;;;14.80;99.90;;;;;;4931599;29;19931;-76
2023/03/23 12:40:06;;;;;;;;;;;15.00;99.90;;;;;;4918221;29;20025;-77
2023/03/23 12:42:40;;;;;;;;;;;15.40;99.90;;;;;;4896177;29;20018;-78
2023/03/23 12:45:18;;;;;;;;;;;15.40;99.90;;;;;;4929997;29;19933;-77
2023/03/23 12:47:52;;;;;;;;;;;15.40;99.90;;;;;;4915714;29;20654;-76
2023/03/23 12:50:23;;;;;;;;;;;15.40;99.90;;;;;;4916165;29;19927;-76
2023/03/23 12:52:57;;;;;;;;;;;15.20;99.90;;;;;;4913025;29;20585;-74
2023/03/23 12:55:28;;;;;;;;;;;15.30;99.90;;;;;;4915319;29;19930;-75
2023/03/23 12:57:59;;;;;;;;;;;15.30;99.90;;;;;;4910511;29;19973;-75
2023/03/23 13:00:29;;;;;;;;;;;15.50;99.90;;;;;;4906456;29;19934;-73
2023/03/23 13:03:00;;;;;;;;;;;15.50;99.90;;;;;;4908821;29;20022;-74
2023/03/23 13:05:34;;;;;;;;;;;15.40;99.90;;;;;;4908946;29;19923;-75
2023/03/23 13:08:02;;;;;;;;;;;15.20;99.90;;;;;;4921020;29;19931;-75
2023/03/23 13:10:30;;;;;;;;;;;15.20;99.90;;;;;;4908661;29;20364;-76
2023/03/23 13:12:58;;;;;;;;;;;15.40;99.90;;;;;;4927178;29;19931;-76
2023/03/23 13:15:31;;;;;;;;;;;15.80;99.90;;;;;;4929670;29;19935;-76
2023/03/23 13:18:11;;;;;;;;;;;16.20;99.90;;;;;;4932616;29;19930;-77
2023/03/23 13:20:55;;;;;;;;;;;16.20;99.90;;;;;;4912160;29;19970;-76
2023/03/23 13:23:22;;;;;;;;;;;16.10;99.90;;;;;;4906821;29;19922;-76
2023/03/23 13:25:51;;;;;;;;;;;16.10;99.90;;;;;;4920568;29;20017;-76
2023/03/23 13:28:20;;;;;;;;;;;16.00;99.90;;;;;;4911891;29;19923;-75
2023/03/23 13:31:01;;;;;;;;;;;15.80;99.90;;;;;;4917915;29;19926;-75
2023/03/23 13:33:32;;;;;;;;;;;15.50;99.90;;;;;;4905001;29;19934;-76
2023/03/23 13:36:06;;;;;;;;;;;15.90;99.90;;;;;;4910356;29;19927;-75
2023/03/23 13:38:34;;;;;;;;;;;15.80;99.90;;;;;;4915790;29;19931;-75
2023/03/23 13:41:07;;;;;;;;;;;15.80;99.90;;;;;;4915591;29;20416;-76
2023/03/23 13:43:35;;;;;;;;;;;15.80;99.90;;;;;;4910318;29;19931;-75
2023/03/23 13:46:10;;;;;;;;;;;16.00;99.90;;;;;;4909709;29;19927;-75
2023/03/23 13:48:45;;;;;;;;;;;16.10;99.90;;;;;;4912670;29;20342;-75
2023/03/23 13:51:28;;;;;;;;;;;16.20;99.90;;;;;;4913691;29;19922;-75
2023/03/23 13:54:06;;;;;;;;;;;16.40;99.90;;;;;;4912211;29;20029;-75
2023/03/23 13:56:36;;;;;;;;;;;16.50;99.90;;;;;;4919029;29;19933;-76
2023/03/23 13:59:07;;;;;;;;;;;16.50;99.90;;;;;;4933402;29;19926;-75
2023/03/23 14:01:36;;;;;;;;;;;16.50;99.90;;;;;;4928583;29;19931;-75
2023/03/23 14:04:07;;;;;;;;;;;16.50;99.90;;;;;;4926883;29;20010;-75
2023/03/23 14:06:34;;;;;;;;;;;16.50;99.90;;;;;;4918109;29;19931;-74
2023/03/23 14:09:09;;;;;;;;;;;16.40;99.90;;;;;;4914079;29;19934;-74
2023/03/23 14:11:45;;;;;;;;;;;16.40;99.90;;;;;;4916836;29;20583;-74
2023/03/23 14:14:16;;;;;;;;;;;16.40;99.90;;;;;;4915964;29;19927;-75
2023/03/23 14:16:44;;;;;;;;;;;16.40;99.90;;;;;;4914932;29;19954;-75
2023/03/23 14:19:19;;;;;;;;;;;16.60;99.90;;;;;;4920744;29;19926;-75
2023/03/23 14:21:50;;;;;;;;;;;16.80;99.90;;;;;;4926209;29;19999;-75
2023/03/23 14:24:17;;;;;;;;;;;17.10;99.90;;;;;;4932472;29;20001;-75
2023/03/23 14:26:45;;;;;;;;;;;17.30;99.90;;;;;;4935929;29;21019;-75
2023/03/23 14:29:13;;;;;;;;;;;17.30;99.90;;;;;;4915698;29;19966;-75
2023/03/23 14:31:40;;;;;;;;;;;17.20;99.90;;;;;;4933198;29;19927;-75
2023/03/23 14:34:14;;;;;;;;;;;17.10;99.90;;;;;;4917259;29;19931;-75
2023/03/23 14:36:42;;;;;;;;;;;17.00;99.90;;;;;;4916718;29;20343;-77
2023/03/23 14:39:15;;;;;;;;;;;16.70;99.90;;;;;;4916150;29;19923;-75
2023/03/23 14:41:43;;;;;;;;;;;16.40;99.90;;;;;;4915744;29;19923;-75
2023/03/23 14:44:13;;;;;;;;;;;16.20;99.90;;;;;;4924913;29;20601;-75
2023/03/23 14:46:42;;;;;;;;;;;16.10;99.90;;;;;;4934333;29;19927;-76
2023/03/23 14:49:14;;;;;;;;;;;16.10;99.90;;;;;;4927263;29;19927;-74